sensor_id;sensor_type;location;lat;lon;timestamp;pressure;altitude;pressure_sealevel;temperature;humidity
49122;BME280;35529;44.342;25.944;2023-01-26T00:01:34;101807.84;;;2.25;100.00
49122;BME280;35529;44.342;25.944;2023-01-26T00:04:00;101816.88;;;2.21;100.00
49122;BME280;35529;44.342;25.944;2023-01-26T00:06:26;101801.44;;;2.16;100.00
49122;BME280;35529;44.342;25.944;2023-01-26T00:08:53;101808.03;;;2.22;100.00
49122;BME280;35529;44.342;25.944;2023-01-26T00:11:21;101803.25;;;2.16;100.00
49122;BME280;35529;44.342;25.944;2023-01-26T00:13:54;101800.94;;;2.11;100.00
49122;BME280;35529;44.342;25.944;2023-01-26T00:16:21;101800.09;;;2.11;100.00
49122;BME280;35529;44.342;25.944;2023-01-26T00:18:47;101805.34;;;2.11;100.00
49122;BME280;35529;44.342;25.944;2023-01-26T00:21:14;101805.97;;;2.14;100.00
49122;BME280;35529;44.342;25.944;2023-01-26T00:23:41;101800.00;;;2.12;100.00
49122;BME280;35529;44.342;25.944;2023-01-26T00:26:08;101798.94;;;2.15;100.00
49122;BME280;35529;44.342;25.944;2023-01-26T00:28:34;101799.75;;;2.15;100.00
49122;BME280;35529;44.342;25.944;2023-01-26T00:31:01;101796.31;;;2.15;100.00
49122;BME280;35529;44.342;25.944;2023-01-26T00:33:28;101787.63;;;2.14;100.00
49122;BME280;35529;44.342;25.944;2023-01-26T00:35:54;101791.31;;;2.12;100.00
49122;BME280;35529;44.342;25.944;2023-01-26T00:38:20;101795.81;;;2.10;100.00
49122;BME280;35529;44.342;25.944;2023-01-26T00:40:46;101794.34;;;2.06;100.00
49122;BME280;35529;44.342;25.944;2023-01-26T00:43:12;101801.16;;;2.08;100.00
49122;BME280;35529;44.342;25.944;2023-01-26T00:45:39;101799.25;;;2.10;100.00
49122;BME280;35529;44.342;25.944;2023-01-26T00:48:05;101792.97;;;2.13;100.00
49122;BME280;35529;44.342;25.944;2023-01-26T00:50:31;101794.41;;;2.17;100.00
49122;BME280;35529;44.342;25.944;2023-01-26T00:52:58;101783.72;;;2.20;100.00
49122;BME280;35529;44.342;25.944;2023-01-26T00:55:24;101794.81;;;2.24;100.00
49122;BME280;35529;44.342;25.944;2023-01-26T00:57:57;101790.97;;;2.16;100.00
49122;BME280;35529;44.342;25.944;2023-01-26T01:00:23;101790.75;;;2.20;100.00
49122;BME280;35529;44.342;25.944;2023-01-26T01:02:49;101786.34;;;2.20;100.00
49122;BME280;35529;44.342;25.944;2023-01-26T01:05:16;101779.94;;;2.24;100.00
49122;BME280;35529;44.342;25.944;2023-01-26T01:07:42;101783.09;;;2.29;100.00
49122;BME280;35529;44.342;25.944;2023-01-26T01:10:08;101772.59;;;2.29;100.00
49122;BME280;35529;44.342;25.944;2023-01-26T01:12:34;101776.16;;;2.28;100.00
49122;BME280;35529;44.342;25.944;2023-01-26T01:15:00;101774.47;;;2.27;100.00
49122;BME280;35529;44.342;25.944;2023-01-26T01:17:26;101770.09;;;2.28;100.00
49122;BME280;35529;44.342;25.944;2023-01-26T01:19:53;101769.34;;;2.26;100.00
49122;BME280;35529;44.342;25.944;2023-01-26T01:22:19;101776.16;;;2.28;100.00
49122;BME280;35529;44.342;25.944;2023-01-26T01:24:45;101765.28;;;2.22;100.00
49122;BME280;35529;44.342;25.944;2023-01-26T01:27:11;101769.22;;;2.27;100.00
49122;BME280;35529;44.342;25.944;2023-01-26T01:29:37;101762.53;;;2.23;100.00
49122;BME280;35529;44.342;25.944;2023-01-26T01:32:03;101759.22;;;2.21;100.00
49122;BME280;35529;44.342;25.944;2023-01-26T01:34:29;101753.97;;;2.21;100.00
49122;BME280;35529;44.342;25.944;2023-01-26T01:36:55;101746.94;;;2.22;100.00
49122;BME280;35529;44.342;25.944;2023-01-26T01:39:21;101754.41;;;2.15;100.00
49122;BME280;35529;44.342;25.944;2023-01-26T01:41:48;101749.78;;;2.18;100.00
49122;BME280;35529;44.342;25.944;2023-01-26T01:44:15;101743.50;;;2.21;100.00
49122;BME280;35529;44.342;25.944;2023-01-26T01:46:43;101739.06;;;2.22;100.00
49122;BME280;35529;44.342;25.944;2023-01-26T01:51:44;101733.22;;;2.18;100.00
49122;BME280;35529;44.342;25.944;2023-01-26T01:54:13;101726.63;;;2.12;100.00
49122;BME280;35529;44.342;25.944;2023-01-26T01:56:41;101726.97;;;2.08;100.00
49122;BME280;35529;44.342;25.944;2023-01-26T01:59:08;101708.84;;;2.05;100.00
49122;BME280;35529;44.342;25.944;2023-01-26T02:01:36;101720.72;;;1.97;100.00
49122;BME280;35529;44.342;25.944;2023-01-26T02:04:03;101718.91;;;1.98;100.00
49122;BME280;35529;44.342;25.944;2023-01-26T02:06:46;101716.28;;;1.98;100.00
49122;BME280;35529;44.342;25.944;2023-01-26T02:09:13;101713.50;;;1.88;100.00
49122;BME280;35529;44.342;25.944;2023-01-26T02:12:01;101711.94;;;1.86;100.00
49122;BME280;35529;44.342;25.944;2023-01-26T02:14:28;101706.28;;;1.92;100.00
49122;BME280;35529;44.342;25.944;2023-01-26T02:16:54;101712.84;;;1.97;100.00
49122;BME280;35529;44.342;25.944;2023-01-26T02:19:31;101712.09;;;1.95;100.00
49122;BME280;35529;44.342;25.944;2023-01-26T02:22:04;101716.13;;;1.88;100.00
49122;BME280;35529;44.342;25.944;2023-01-26T02:24:33;101710.66;;;1.91;100.00
49122;BME280;35529;44.342;25.944;2023-01-26T02:27:02;101705.94;;;1.96;100.00
49122;BME280;35529;44.342;25.944;2023-01-26T02:29:28;101699.13;;;1.94;100.00
49122;BME280;35529;44.342;25.944;2023-01-26T02:31:54;101706.97;;;1.94;100.00
49122;BME280;35529;44.342;25.944;2023-01-26T02:34:20;101703.94;;;2.00;100.00
49122;BME280;35529;44.342;25.944;2023-01-26T02:36:55;101696.41;;;1.95;100.00
49122;BME280;35529;44.342;25.944;2023-01-26T02:39:29;101690.56;;;1.92;100.00
49122;BME280;35529;44.342;25.944;2023-01-26T02:41:59;101688.13;;;1.89;100.00
49122;BME280;35529;44.342;25.944;2023-01-26T02:44:44;101696.84;;;1.89;100.00
49122;BME280;35529;44.342;25.944;2023-01-26T02:47:11;101696.34;;;1.84;100.00
49122;BME280;35529;44.342;25.944;2023-01-26T02:49:37;101694.75;;;1.94;100.00
49122;BME280;35529;44.342;25.944;2023-01-26T02:52:22;101695.34;;;1.98;100.00
49122;BME280;35529;44.342;25.944;2023-01-26T02:54:50;101700.47;;;1.99;100.00
49122;BME280;35529;44.342;25.944;2023-01-26T02:57:35;101697.03;;;1.99;100.00
49122;BME280;35529;44.342;25.944;2023-01-26T03:00:03;101703.19;;;1.98;100.00
49122;BME280;35529;44.342;25.944;2023-01-26T03:02:29;101693.06;;;1.93;100.00
49122;BME280;35529;44.342;25.944;2023-01-26T03:04:55;101691.38;;;1.92;100.00
49122;BME280;35529;44.342;25.944;2023-01-26T03:07:22;101689.94;;;1.88;100.00
49122;BME280;35529;44.342;25.944;2023-01-26T03:09:48;101690.44;;;1.93;100.00
49122;BME280;35529;44.342;25.944;2023-01-26T03:12:14;101693.06;;;1.93;100.00
49122;BME280;35529;44.342;25.944;2023-01-26T03:14:40;101684.03;;;1.97;100.00
49122;BME280;35529;44.342;25.944;2023-01-26T03:17:06;101684.16;;;1.96;100.00
49122;BME280;35529;44.342;25.944;2023-01-26T03:19:32;101690.97;;;1.98;100.00
49122;BME280;35529;44.342;25.944;2023-01-26T03:22:16;101687.59;;;1.96;100.00
49122;BME280;35529;44.342;25.944;2023-01-26T03:25:01;101689.50;;;1.94;100.00
49122;BME280;35529;44.342;25.944;2023-01-26T03:27:47;101673.88;;;1.93;100.00
49122;BME280;35529;44.342;25.944;2023-01-26T03:30:14;101676.28;;;1.96;100.00
49122;BME280;35529;44.342;25.944;2023-01-26T03:32:41;101669.16;;;1.98;100.00
49122;BME280;35529;44.342;25.944;2023-01-26T03:35:07;101672.69;;;1.97;100.00
49122;BME280;35529;44.342;25.944;2023-01-26T03:37:34;101658.78;;;1.96;100.00
49122;BME280;35529;44.342;25.944;2023-01-26T03:40:02;101657.84;;;1.97;100.00
49122;BME280;35529;44.342;25.944;2023-01-26T03:42:46;101651.75;;;1.97;100.00
49122;BME280;35529;44.342;25.944;2023-01-26T03:45:31;101647.38;;;1.97;100.00
49122;BME280;35529;44.342;25.944;2023-01-26T03:48:18;101631.66;;;1.97;100.00
49122;BME280;35529;44.342;25.944;2023-01-26T03:51:02;101639.50;;;1.97;100.00
49122;BME280;35529;44.342;25.944;2023-01-26T03:53:47;101640.78;;;1.92;100.00
49122;BME280;35529;44.342;25.944;2023-01-26T03:56:32;101641.34;;;1.84;100.00
49122;BME280;35529;44.342;25.944;2023-01-26T03:58:59;101630.13;;;1.82;100.00
49122;BME280;35529;44.342;25.944;2023-01-26T04:01:37;101628.03;;;1.87;100.00
49122;BME280;35529;44.342;25.944;2023-01-26T04:04:03;101625.16;;;1.90;100.00
49122;BME280;35529;44.342;25.944;2023-01-26T04:06:48;101614.69;;;1.90;100.00
49122;BME280;35529;44.342;25.944;2023-01-26T04:09:33;101613.88;;;1.90;100.00
49122;BME280;35529;44.342;25.944;2023-01-26T04:11:59;101608.41;;;1.93;100.00
49122;BME280;35529;44.342;25.944;2023-01-26T04:14:26;101609.97;;;1.95;100.00
49122;BME280;35529;44.342;25.944;2023-01-26T04:17:10;101600.66;;;1.91;100.00
49122;BME280;35529;44.342;25.944;2023-01-26T04:19:55;101596.84;;;1.95;100.00
49122;BME280;35529;44.342;25.944;2023-01-26T04:22:40;101597.84;;;1.94;100.00
49122;BME280;35529;44.342;25.944;2023-01-26T04:25:10;101589.84;;;1.96;100.00
49122;BME280;35529;44.342;25.944;2023-01-26T04:27:37;101587.13;;;1.97;100.00
49122;BME280;35529;44.342;25.944;2023-01-26T04:30:04;101576.16;;;2.04;100.00
49122;BME280;35529;44.342;25.944;2023-01-26T04:32:30;101571.91;;;2.03;100.00
49122;BME280;35529;44.342;25.944;2023-01-26T04:34:56;101574.72;;;1.99;100.00
49122;BME280;35529;44.342;25.944;2023-01-26T04:37:22;101567.47;;;1.92;100.00
49122;BME280;35529;44.342;25.944;2023-01-26T04:39:48;101580.31;;;1.95;100.00
49122;BME280;35529;44.342;25.944;2023-01-26T04:42:14;101579.25;;;1.97;100.00
49122;BME280;35529;44.342;25.944;2023-01-26T04:44:41;101581.41;;;2.04;100.00
49122;BME280;35529;44.342;25.944;2023-01-26T04:47:07;101585.59;;;2.06;100.00
49122;BME280;35529;44.342;25.944;2023-01-26T04:49:33;101578.47;;;2.08;100.00
49122;BME280;35529;44.342;25.944;2023-01-26T04:51:59;101581.31;;;2.05;100.00
49122;BME280;35529;44.342;25.944;2023-01-26T04:54:25;101575.34;;;2.03;100.00
49122;BME280;35529;44.342;25.944;2023-01-26T04:56:51;101571.91;;;2.03;100.00
49122;BME280;35529;44.342;25.944;2023-01-26T04:59:17;101575.22;;;2.05;100.00
49122;BME280;35529;44.342;25.944;2023-01-26T05:01:43;101568.09;;;2.07;100.00
49122;BME280;35529;44.342;25.944;2023-01-26T05:04:10;101572.16;;;2.11;100.00
49122;BME280;35529;44.342;25.944;2023-01-26T05:06:37;101575.63;;;2.11;100.00
49122;BME280;35529;44.342;25.944;2023-01-26T05:09:04;101563.44;;;2.10;100.00
49122;BME280;35529;44.342;25.944;2023-01-26T05:11:30;101571.31;;;2.10;100.00
49122;BME280;35529;44.342;25.944;2023-01-26T05:13:56;101576.47;;;2.12;100.00
49122;BME280;35529;44.342;25.944;2023-01-26T05:16:25;101559.63;;;2.03;100.00
49122;BME280;35529;44.342;25.944;2023-01-26T05:18:52;101563.56;;;2.09;100.00
49122;BME280;35529;44.342;25.944;2023-01-26T05:21:18;101565.97;;;2.12;100.00
49122;BME280;35529;44.342;25.944;2023-01-26T05:23:44;101554.31;;;2.16;100.00
49122;BME280;35529;44.342;25.944;2023-01-26T05:26:10;101557.38;;;2.10;100.00
49122;BME280;35529;44.342;25.944;2023-01-26T05:28:36;101565.13;;;2.11;100.00
49122;BME280;35529;44.342;25.944;2023-01-26T05:31:02;101562.41;;;2.13;100.00
49122;BME280;35529;44.342;25.944;2023-01-26T05:33:28;101557.16;;;2.13;100.00
49122;BME280;35529;44.342;25.944;2023-01-26T05:35:54;101545.03;;;2.12;100.00
49122;BME280;35529;44.342;25.944;2023-01-26T05:38:20;101545.84;;;2.12;100.00
49122;BME280;35529;44.342;25.944;2023-01-26T05:40:47;101541.94;;;2.18;100.00
49122;BME280;35529;44.342;25.944;2023-01-26T05:43:13;101544.78;;;2.15;100.00
49122;BME280;35529;44.342;25.944;2023-01-26T05:45:39;101548.22;;;2.15;100.00
49122;BME280;35529;44.342;25.944;2023-01-26T05:48:05;101556.44;;;2.11;100.00
49122;BME280;35529;44.342;25.944;2023-01-26T05:50:31;101545.84;;;2.12;100.00
49122;BME280;35529;44.342;25.944;2023-01-26T05:52:57;101563.56;;;2.09;100.00
49122;BME280;35529;44.342;25.944;2023-01-26T05:55:25;101551.53;;;2.06;100.00
49122;BME280;35529;44.342;25.944;2023-01-26T05:57:51;101555.84;;;2.07;100.00
49122;BME280;35529;44.342;25.944;2023-01-26T06:00:17;101542.41;;;2.12;100.00
49122;BME280;35529;44.342;25.944;2023-01-26T06:02:43;101552.97;;;2.10;100.00
49122;BME280;35529;44.342;25.944;2023-01-26T06:05:10;101552.88;;;2.12;100.00
49122;BME280;35529;44.342;25.944;2023-01-26T06:07:36;101540.84;;;2.09;100.00
49122;BME280;35529;44.342;25.944;2023-01-26T06:10:02;101538.34;;;2.08;100.00
49122;BME280;35529;44.342;25.944;2023-01-26T06:12:28;101538.22;;;2.09;100.00
49122;BME280;35529;44.342;25.944;2023-01-26T06:15:00;101537.50;;;2.07;100.00
49122;BME280;35529;44.342;25.944;2023-01-26T06:17:26;101534.06;;;2.07;100.00
49122;BME280;35529;44.342;25.944;2023-01-26T06:19:53;101531.81;;;2.13;100.00
49122;BME280;35529;44.342;25.944;2023-01-26T06:22:19;101526.31;;;2.16;100.00
49122;BME280;35529;44.342;25.944;2023-01-26T06:24:45;101529.06;;;2.15;100.00
49122;BME280;35529;44.342;25.944;2023-01-26T06:27:15;101526.22;;;2.18;100.00
49122;BME280;35529;44.342;25.944;2023-01-26T06:29:41;101525.50;;;2.16;100.00
49122;BME280;35529;44.342;25.944;2023-01-26T06:32:11;101528.25;;;2.14;100.00
49122;BME280;35529;44.342;25.944;2023-01-26T06:34:37;101534.06;;;2.18;100.00
49122;BME280;35529;44.342;25.944;2023-01-26T06:37:03;101532.38;;;2.17;100.00
49122;BME280;35529;44.342;25.944;2023-01-26T06:39:30;101533.75;;;2.23;100.00
49122;BME280;35529;44.342;25.944;2023-01-26T06:41:56;101540.28;;;2.28;100.00
49122;BME280;35529;44.342;25.944;2023-01-26T06:44:22;101539.72;;;2.36;100.00
49122;BME280;35529;44.342;25.944;2023-01-26T06:46:48;101536.25;;;2.35;100.00
49122;BME280;35529;44.342;25.944;2023-01-26T06:49:14;101528.06;;;2.40;100.00
49122;BME280;35529;44.342;25.944;2023-01-26T06:51:43;101533.88;;;2.44;100.00
49122;BME280;35529;44.342;25.944;2023-01-26T06:54:10;101539.13;;;2.44;100.00
49122;BME280;35529;44.342;25.944;2023-01-26T06:56:37;101529.38;;;2.46;100.00
49122;BME280;35529;44.342;25.944;2023-01-26T06:59:06;101530.56;;;2.53;100.00
49122;BME280;35529;44.342;25.944;2023-01-26T07:01:35;101529.00;;;2.50;100.00
49122;BME280;35529;44.342;25.944;2023-01-26T07:04:02;101521.03;;;2.52;100.00
49122;BME280;35529;44.342;25.944;2023-01-26T07:06:28;101527.72;;;2.56;100.00
49122;BME280;35529;44.342;25.944;2023-01-26T07:08:55;101520.31;;;2.50;100.00
49122;BME280;35529;44.342;25.944;2023-01-26T07:11:21;101519.59;;;2.48;100.00
49122;BME280;35529;44.342;25.944;2023-01-26T07:13:47;101518.88;;;2.46;100.00
49122;BME280;35529;44.342;25.944;2023-01-26T07:16:14;101512.44;;;2.50;100.00
49122;BME280;35529;44.342;25.944;2023-01-26T07:18:40;101507.19;;;2.50;100.00
49122;BME280;35529;44.342;25.944;2023-01-26T07:21:08;101512.19;;;2.53;100.00
49122;BME280;35529;44.342;25.944;2023-01-26T07:23:35;101504.81;;;2.58;100.00
49122;BME280;35529;44.342;25.944;2023-01-26T07:26:01;101498.03;;;2.67;100.00
49122;BME280;35529;44.342;25.944;2023-01-26T07:28:27;101496.97;;;2.70;100.00
49122;BME280;35529;44.342;25.944;2023-01-26T07:30:58;101490.78;;;2.71;100.00
49122;BME280;35529;44.342;25.944;2023-01-26T07:33:28;101475.75;;;2.61;100.00
49122;BME280;35529;44.342;25.944;2023-01-26T07:35:54;101478.38;;;2.61;100.00
49122;BME280;35529;44.342;25.944;2023-01-26T07:38:21;101475.38;;;2.66;100.00
49122;BME280;35529;44.342;25.944;2023-01-26T07:40:47;101472.41;;;2.71;100.00
49122;BME280;35529;44.342;25.944;2023-01-26T07:43:14;101480.16;;;2.72;100.00
49122;BME280;35529;44.342;25.944;2023-01-26T07:45:44;101480.72;;;2.76;100.00
49122;BME280;35529;44.342;25.944;2023-01-26T07:48:10;101478.59;;;2.81;100.00
49122;BME280;35529;44.342;25.944;2023-01-26T07:50:36;101481.09;;;2.71;100.00
49122;BME280;35529;44.342;25.944;2023-01-26T07:53:02;101474.06;;;2.72;100.00
49122;BME280;35529;44.342;25.944;2023-01-26T07:55:28;101481.34;;;2.79;100.00
49122;BME280;35529;44.342;25.944;2023-01-26T07:57:54;101483.13;;;2.79;100.00
49122;BME280;35529;44.342;25.944;2023-01-26T08:00:20;101484.78;;;2.80;100.00
49122;BME280;35529;44.342;25.944;2023-01-26T08:02:50;101482.88;;;2.82;100.00
49122;BME280;35529;44.342;25.944;2023-01-26T08:05:16;101480.53;;;2.79;100.00
49122;BME280;35529;44.342;25.944;2023-01-26T08:07:42;101482.06;;;2.81;100.00
49122;BME280;35529;44.342;25.944;2023-01-26T08:10:08;101481.59;;;2.76;100.00
49122;BME280;35529;44.342;25.944;2023-01-26T08:12:35;101478.47;;;2.82;100.00
49122;BME280;35529;44.342;25.944;2023-01-26T08:15:02;101472.78;;;2.77;100.00
49122;BME280;35529;44.342;25.944;2023-01-26T08:17:29;101467.88;;;2.84;100.00
49122;BME280;35529;44.342;25.944;2023-01-26T08:19:55;101478.94;;;2.88;100.00
49122;BME280;35529;44.342;25.944;2023-01-26T08:22:21;101478.13;;;2.87;100.00
49122;BME280;35529;44.342;25.944;2023-01-26T08:24:47;101462.63;;;2.84;100.00
49122;BME280;35529;44.342;25.944;2023-01-26T08:27:13;101464.41;;;2.95;100.00
49122;BME280;35529;44.342;25.944;2023-01-26T08:29:40;101466.91;;;2.96;100.00
49122;BME280;35529;44.342;25.944;2023-01-26T08:32:07;101462.34;;;2.98;100.00
49122;BME280;35529;44.342;25.944;2023-01-26T08:34:34;101461.28;;;3.01;100.00
49122;BME280;35529;44.342;25.944;2023-01-26T08:37:00;101457.81;;;3.00;100.00
49122;BME280;35529;44.342;25.944;2023-01-26T08:39:26;101464.75;;;3.01;100.00
49122;BME280;35529;44.342;25.944;2023-01-26T08:41:53;101458.84;;;3.09;100.00
49122;BME280;35529;44.342;25.944;2023-01-26T08:44:19;101468.28;;;3.12;100.00
49122;BME280;35529;44.342;25.944;2023-01-26T08:46:45;101466.25;;;3.15;100.00
49122;BME280;35529;44.342;25.944;2023-01-26T08:49:11;101460.75;;;3.18;100.00
49122;BME280;35529;44.342;25.944;2023-01-26T08:51:37;101454.94;;;3.15;100.00
49122;BME280;35529;44.342;25.944;2023-01-26T08:54:06;101450.13;;;3.20;100.00
49122;BME280;35529;44.342;25.944;2023-01-26T08:56:36;101438.78;;;3.31;100.00
49122;BME280;35529;44.342;25.944;2023-01-26T08:59:02;101423.69;;;3.44;100.00
49122;BME280;35529;44.342;25.944;2023-01-26T09:01:28;101408.81;;;3.55;100.00
49122;BME280;35529;44.342;25.944;2023-01-26T09:03:54;101400.94;;;3.55;100.00
49122;BME280;35529;44.342;25.944;2023-01-26T09:06:21;101409.41;;;3.58;100.00
49122;BME280;35529;44.342;25.944;2023-01-26T09:08:47;101401.66;;;3.57;100.00
49122;BME280;35529;44.342;25.944;2023-01-26T09:11:13;101402.03;;;3.52;100.00
49122;BME280;35529;44.342;25.944;2023-01-26T09:13:39;101395.75;;;3.43;100.00
49122;BME280;35529;44.342;25.944;2023-01-26T09:16:06;101408.44;;;3.38;100.00
49122;BME280;35529;44.342;25.944;2023-01-26T09:18:33;101406.31;;;3.32;100.00
49122;BME280;35529;44.342;25.944;2023-01-26T09:21:04;101397.06;;;3.16;100.00
49122;BME280;35529;44.342;25.944;2023-01-26T09:23:31;101393.06;;;3.01;100.00
49122;BME280;35529;44.342;25.944;2023-01-26T09:25:58;101394.00;;;3.00;100.00
49122;BME280;35529;44.342;25.944;2023-01-26T09:28:27;101396.88;;;2.97;100.00
49122;BME280;35529;44.342;25.944;2023-01-26T09:30:53;101389.63;;;3.00;100.00
49122;BME280;35529;44.342;25.944;2023-01-26T09:33:19;101386.41;;;2.97;100.00
49122;BME280;35529;44.342;25.944;2023-01-26T09:35:50;101381.47;;;3.04;100.00
49122;BME280;35529;44.342;25.944;2023-01-26T09:38:16;101377.31;;;3.01;100.00
49122;BME280;35529;44.342;25.944;2023-01-26T09:45:45;101365.00;;;3.13;100.00
49122;BME280;35529;44.342;25.944;2023-01-26T09:51:00;101353.91;;;3.09;100.00
49122;BME280;35529;44.342;25.944;2023-01-26T09:56:09;101337.94;;;3.12;100.00
49122;BME280;35529;44.342;25.944;2023-01-26T09:58:38;101333.50;;;3.13;100.00
49122;BME280;35529;44.342;25.944;2023-01-26T10:01:08;101334.59;;;3.10;100.00
49122;BME280;35529;44.342;25.944;2023-01-26T10:03:40;101337.34;;;3.09;100.00
49122;BME280;35529;44.342;25.944;2023-01-26T10:08:38;101344.38;;;3.08;100.00
49122;BME280;35529;44.342;25.944;2023-01-26T10:11:18;101344.94;;;3.12;100.00
49122;BME280;35529;44.342;25.944;2023-01-26T10:13:48;101341.84;;;3.18;100.00
49122;BME280;35529;44.342;25.944;2023-01-26T10:16:15;101331.59;;;3.15;100.00
49122;BME280;35529;44.342;25.944;2023-01-26T10:18:46;101325.31;;;3.27;100.00
49122;BME280;35529;44.342;25.944;2023-01-26T10:21:15;101316.50;;;3.28;100.00
49122;BME280;35529;44.342;25.944;2023-01-26T10:23:46;101315.50;;;3.29;100.00
49122;BME280;35529;44.342;25.944;2023-01-26T10:26:20;101311.88;;;3.21;100.00
49122;BME280;35529;44.342;25.944;2023-01-26T10:28:48;101316.53;;;3.17;100.00
49122;BME280;35529;44.342;25.944;2023-01-26T10:31:16;101297.34;;;3.16;100.00
49122;BME280;35529;44.342;25.944;2023-01-26T10:33:44;101305.53;;;3.23;100.00
49122;BME280;35529;44.342;25.944;2023-01-26T10:36:13;101297.84;;;3.31;100.00
49122;BME280;35529;44.342;25.944;2023-01-26T10:38:40;101283.84;;;3.21;100.00
49122;BME280;35529;44.342;25.944;2023-01-26T10:43:41;101277.72;;;3.11;100.00
49122;BME280;35529;44.342;25.944;2023-01-26T10:46:47;101267.00;;;3.02;100.00
49122;BME280;35529;44.342;25.944;2023-01-26T10:51:33;101253.78;;;3.04;100.00
49122;BME280;35529;44.342;25.944;2023-01-26T10:56:42;101245.31;;;3.00;100.00
49122;BME280;35529;44.342;25.944;2023-01-26T10:59:08;101257.34;;;3.03;100.00
49122;BME280;35529;44.342;25.944;2023-01-26T11:01:50;101247.69;;;3.04;100.00
49122;BME280;35529;44.342;25.944;2023-01-26T11:04:16;101252.91;;;3.04;100.00
49122;BME280;35529;44.342;25.944;2023-01-26T11:06:43;101257.72;;;2.98;100.00
49122;BME280;35529;44.342;25.944;2023-01-26T11:11:38;101236.19;;;2.95;100.00
49122;BME280;35529;44.342;25.944;2023-01-26T11:14:11;101242.28;;;3.05;100.00
49122;BME280;35529;44.342;25.944;2023-01-26T11:16:45;101241.41;;;3.16;100.00
49122;BME280;35529;44.342;25.944;2023-01-26T11:19:18;101240.47;;;3.27;100.00
49122;BME280;35529;44.342;25.944;2023-01-26T11:21:52;101234.41;;;3.26;100.00
49122;BME280;35529;44.342;25.944;2023-01-26T11:39:58;101203.56;;;3.49;100.00
49122;BME280;35529;44.342;25.944;2023-01-26T11:47:43;101181.88;;;3.47;100.00
49122;BME280;35529;44.342;25.944;2023-01-26T11:50:25;101170.59;;;3.57;100.00
49122;BME280;35529;44.342;25.944;2023-01-26T11:58:17;101162.59;;;3.68;100.00
49122;BME280;35529;44.342;25.944;2023-01-26T12:00:50;101163.97;;;3.62;100.00
49122;BME280;35529;44.342;25.944;2023-01-26T12:03:26;101156.78;;;3.64;100.00
49122;BME280;35529;44.342;25.944;2023-01-26T12:05:56;101156.38;;;3.69;100.00
49122;BME280;35529;44.342;25.944;2023-01-26T12:08:28;101154.47;;;3.81;100.00
49122;BME280;35529;44.342;25.944;2023-01-26T12:16:36;101140.81;;;3.97;100.00
49122;BME280;35529;44.342;25.944;2023-01-26T12:21:34;101138.28;;;3.85;100.00
49122;BME280;35529;44.342;25.944;2023-01-26T12:24:02;101138.28;;;3.85;100.00
49122;BME280;35529;44.342;25.944;2023-01-26T12:26:32;101128.06;;;3.82;100.00
49122;BME280;35529;44.342;25.944;2023-01-26T12:32:16;101111.44;;;3.72;100.00
49122;BME280;35529;44.342;25.944;2023-01-26T12:34:26;101120.31;;;3.71;100.00
49122;BME280;35529;44.342;25.944;2023-01-26T12:36:57;101114.22;;;3.71;100.00
49122;BME280;35529;44.342;25.944;2023-01-26T12:39:34;101115.88;;;3.72;100.00
49122;BME280;35529;44.342;25.944;2023-01-26T12:49:33;101102.31;;;3.66;100.00
49122;BME280;35529;44.342;25.944;2023-01-26T12:52:03;101100.28;;;3.70;100.00
49122;BME280;35529;44.342;25.944;2023-01-26T12:54:48;101103.28;;;3.65;100.00
49122;BME280;35529;44.342;25.944;2023-01-26T12:57:20;101101.66;;;3.64;100.00
49122;BME280;35529;44.342;25.944;2023-01-26T12:59:47;101099.97;;;3.63;100.00
49122;BME280;35529;44.342;25.944;2023-01-26T13:04:42;101097.06;;;3.57;100.00
49122;BME280;35529;44.342;25.944;2023-01-26T13:07:26;101093.34;;;3.59;100.00
49122;BME280;35529;44.342;25.944;2023-01-26T13:15:36;101087.66;;;3.74;100.00
49122;BME280;35529;44.342;25.944;2023-01-26T13:18:02;101074.53;;;3.74;100.00
49122;BME280;35529;44.342;25.944;2023-01-26T13:20:45;101083.25;;;3.64;100.00
49122;BME280;35529;44.342;25.944;2023-01-26T13:28:48;101061.28;;;3.65;100.00
49122;BME280;35529;44.342;25.944;2023-01-26T13:31:28;101067.50;;;3.74;100.00
49122;BME280;35529;44.342;25.944;2023-01-26T13:33:55;101067.22;;;3.67;100.00
49122;BME280;35529;44.342;25.944;2023-01-26T13:36:24;101063.91;;;3.65;100.00
49122;BME280;35529;44.342;25.944;2023-01-26T13:39:00;101058.94;;;3.62;100.00
49122;BME280;35529;44.342;25.944;2023-01-26T13:41:28;101046.75;;;3.61;100.00
49122;BME280;35529;44.342;25.944;2023-01-26T13:44:11;101047.88;;;3.68;100.00
49122;BME280;35529;44.342;25.944;2023-01-26T13:49:39;101042.88;;;3.65;100.00
49122;BME280;35529;44.342;25.944;2023-01-26T13:52:15;101043.16;;;3.72;100.00
49122;BME280;35529;44.342;25.944;2023-01-26T13:54:43;101040.97;;;3.77;100.00
49122;BME280;35529;44.342;25.944;2023-01-26T13:57:09;101041.09;;;3.76;100.00
49122;BME280;35529;44.342;25.944;2023-01-26T13:59:46;101033.50;;;3.73;100.00
49122;BME280;35529;44.342;25.944;2023-01-26T14:02:46;101037.09;;;3.72;100.00
49122;BME280;35529;44.342;25.944;2023-01-26T14:05:05;101031.41;;;3.76;100.00
49122;BME280;35529;44.342;25.944;2023-01-26T14:07:34;101024.78;;;3.72;100.00
49122;BME280;35529;44.342;25.944;2023-01-26T14:10:00;101026.03;;;3.68;100.00
49122;BME280;35529;44.342;25.944;2023-01-26T14:12:28;101015.25;;;3.61;100.00
49122;BME280;35529;44.342;25.944;2023-01-26T14:14:56;101020.25;;;3.64;100.00
49122;BME280;35529;44.342;25.944;2023-01-26T14:17:26;101019.25;;;3.65;100.00